Terminal Aerodrome Forecast
Issued by NWS Newport/Morehead City, NC

Home | Current Version | Previous Version | Graphics & Text | Print | Product List | Glossary Off
Versions: 1 2 3 4 5 6 7 8 9 10 11 12 13 14 15

000
FTUS42 KMHX 221100
TAFEWN
TAF
KEWN 221133Z 2212/2312 02007KT 5SM -DZ BR OVC005
     FM221900 35005KT 5SM -DZ BR OVC006
     FM230100 35003KT 1SM BR OVC004=

USA.gov is the U.S. government's official web portal to all federal, state and local government web resources and services.